ADDS TAF Board (Experimental) INFO Settings
IDs: Format: Expanded Condensed

KMIA - Miami Intl, FL, US

Issued at 0257 UTC 28 Jul 2016
Updated at 0450 UTC 28 Jul 2016
Time0353Z 28/05Z 28/06Z 28/07Z 28/08Z 28/09Z 28/10Z 28/11Z 28/12Z 28/13Z 28/14Z 28/15Z 28/16Z 28/17Z
Type OBS PRVL PRVL PRVL PRVL PRVL PRVL PRVL PRVL PRVL PRVL PRVL PRVL PRVL
VIS 10 >6 >6 >6 >6 >6 >6 >6 >6 >6 >6 >6 >6 >6
CIG -- -- -- -- -- -- -- -- -- -- 120 120 120 120
Cover FEW SCT SCT SCT SCT SCT SCT SCT SCT SCT BKN BKN BKN BKN
FltCat VFR VFR VFR VFR VFR VFR VFR VFR VFR VFR VFR VFR VFR VFR
WX -- -- -- -- -- -- -- -- -- -- VCSH VCSH VCSH VCSH
WDir 110 100 100 100 100 100 100 100 100 100 100 100 100 100
WSpd 10 7 7 7 7 7 7 7 7 7 11 11 11 11
WGst -- -- -- -- -- -- -- -- -- -- -- -- -- --
R08/26
XWnd -4 -2 -2 -2 -2 -2 -2 -2 -2 -2 -2 -2 -2 -2
HWnd 9 7 7 7 7 7 7 7 7 7 11 11 11 11
R09/27
XWnd -4 -2 -2 -2 -2 -2 -2 -2 -2 -2 -2 -2 -2 -2
HWnd 9 7 7 7 7 7 7 7 7 7 11 11 11 11
R12/30
XWnd 2 2 2 2 2 2 2 2 2 2 4 4 4 4
HWnd 10 7 7 7 7 7 7 7 7 7 10 10 10 10

Raw TAF
KMIA 280257Z 2803/2824 10007KT P6SM SCT030 SCT250
  FM281400 10011KT P6SM VCSH SCT035 SCT060 BKN120
  FM281800 11011G17KT P6SM VCTS SCT035CB BKN100
  FM282200 11011KT P6SM BKN250


Raw METAR
KMIA 280353Z 11010KT 10SM FEW030 29/24 A3006 RMK AO2 SLP178 T02890244
KMIA 280253Z 10008KT 10SM FEW030 29/24 A3006 RMK AO2 SLP179 T02890239 53007
KMIA 280153Z 10008KT 10SM SCT026 29/24 A3005 RMK AO2 SLP175 T02940239

METAR Board
Radar Display
Forecast Discussion

TAF Board Legend

Potential Impact
Threat None Slight Moderate High
Visibility (sm) ≥5.1 5.1>X≥3 3>X≥1 <1
Ceiling (100 ft) ≥30.1 30.1>X≥10 10>X≥5 <5
Wind Speed (kt) <10 10≤X<20 20≤X<30 ≥30
Wind Gust (kt) <15 15≤X<25 25≤X<35 ≥35
Weather No Wx Reported VCTS,-TS,-FZRA,SN TS,FZRA +TS,+FZRA,+SN